Terminal Aerodrome Forecast
Issued by NWS Springfield, MO

Home | Current Version | Previous Version | Text Only | Print | Product List | Glossary On
Versions: 1 2 3 4 5 6 7 8 9 10 11 12 13 14 15 16 17 18 19 20 21 22
000
FTUS43 KSGF 031721
TAFSGF
TAF
KSGF 031721Z 0318/0418 14014KT P6SM OVC060
     FM040000 13011KT 6SM -RA SCT025 OVC050
      TEMPO 0404/0408 5SM -RA BR SCT015 OVC025
     FM040900 12007KT 5SM -RA BR SCT010 OVC025
     FM041500 17005KT 6SM BR SCT010 OVC025=

USA.gov is the U.S. government's official web portal to all federal, state and local government web resources and services.